createdAt,value
2022-09-16T00:00:02.677Z,12.80
2022-09-16T00:01:02.781Z,12.80
2022-09-16T00:02:02.789Z,12.80
2022-09-16T00:03:02.905Z,12.70
2022-09-16T00:04:02.953Z,12.70
2022-09-16T00:05:02.953Z,12.70
2022-09-16T00:06:02.963Z,12.70
2022-09-16T00:07:03.027Z,12.70
2022-09-16T00:08:02.972Z,12.70
2022-09-16T00:09:03.103Z,12.70
2022-09-16T00:10:03.555Z,12.60
2022-09-16T00:11:03.569Z,12.60
2022-09-16T00:12:02.724Z,12.60
2022-09-16T00:13:02.783Z,12.60
2022-09-16T00:14:02.921Z,12.60
2022-09-16T00:15:02.841Z,12.60
2022-09-16T00:16:02.991Z,12.60
2022-09-16T00:17:03.011Z,12.60
2022-09-16T00:18:03.029Z,12.60
2022-09-16T00:19:03.062Z,12.60
2022-09-16T00:20:03.273Z,12.60
2022-09-16T00:21:03.279Z,12.60
2022-09-16T00:22:03.342Z,12.60
2022-09-16T00:23:03.499Z,12.60
2022-09-16T00:24:03.614Z,12.60
2022-09-16T00:25:02.648Z,12.60
2022-09-16T00:26:02.613Z,12.60
2022-09-16T00:27:03.082Z,12.70
2022-09-16T00:28:03.324Z,12.70
2022-09-16T00:29:03.222Z,12.70
2022-09-16T00:30:04.320Z,12.70
2022-09-16T00:31:03.209Z,12.60
2022-09-16T00:32:03.302Z,12.70
2022-09-16T00:33:03.500Z,12.70
2022-09-16T00:34:03.496Z,12.60
2022-09-16T00:35:03.467Z,12.60
2022-09-16T00:36:03.420Z,12.60
2022-09-16T00:37:03.387Z,12.60
2022-09-16T00:38:03.493Z,12.60
2022-09-16T00:39:03.557Z,12.60
2022-09-16T00:40:03.570Z,12.60
2022-09-16T00:41:03.623Z,12.60
2022-09-16T00:42:03.624Z,12.60
2022-09-16T00:43:02.674Z,12.60
2022-09-16T00:44:02.626Z,12.60
2022-09-16T00:45:02.661Z,12.60
2022-09-16T00:46:02.712Z,12.60
2022-09-16T00:47:02.683Z,12.60
2022-09-16T00:48:02.774Z,12.60
2022-09-16T00:49:02.892Z,12.60
2022-09-16T00:50:02.975Z,12.50
2022-09-16T00:51:03.102Z,12.50
2022-09-16T00:52:03.096Z,12.50
2022-09-16T00:53:03.081Z,12.50
2022-09-16T00:54:03.090Z,12.50
2022-09-16T00:55:03.144Z,12.50
2022-09-16T00:56:03.195Z,12.50
2022-09-16T00:57:03.171Z,12.50
2022-09-16T00:58:02.928Z,12.50
2022-09-16T00:59:03.123Z,12.50
2022-09-16T01:00:03.068Z,12.50
2022-09-16T01:01:03.063Z,12.40
2022-09-16T01:02:03.128Z,12.50
2022-09-16T01:03:03.146Z,12.50
2022-09-16T01:04:03.155Z,12.50
2022-09-16T01:05:03.142Z,12.40
2022-09-16T01:06:03.204Z,12.40
2022-09-16T01:07:03.021Z,12.40
2022-09-16T01:08:03.034Z,12.40
2022-09-16T01:09:03.142Z,12.40
2022-09-16T01:10:03.219Z,12.40
2022-09-16T01:11:03.323Z,12.40
2022-09-16T01:12:03.436Z,12.40
2022-09-16T01:13:03.446Z,12.40
2022-09-16T01:14:03.590Z,12.40
2022-09-16T01:15:02.640Z,12.40
2022-09-16T01:16:02.686Z,12.40
2022-09-16T01:17:02.755Z,12.30
2022-09-16T01:18:02.755Z,12.30
2022-09-16T01:19:03.396Z,12.30
2022-09-16T01:20:04.193Z,12.30
2022-09-16T01:21:05.730Z,12.30
2022-09-16T01:22:03.507Z,12.30
2022-09-16T01:23:06.190Z,12.30
2022-09-16T01:24:03.433Z,12.30
2022-09-16T01:25:03.514Z,12.30
2022-09-16T01:26:03.466Z,12.20
2022-09-16T01:27:03.494Z,12.30
2022-09-16T01:28:03.551Z,12.20
2022-09-16T01:29:03.598Z,12.20
2022-09-16T01:30:02.592Z,12.20
2022-09-16T01:31:02.710Z,12.20
2022-09-16T01:32:02.666Z,12.20
2022-09-16T01:33:02.744Z,12.20
2022-09-16T01:34:02.774Z,12.20
2022-09-16T01:35:02.865Z,12.20
2022-09-16T01:36:02.876Z,12.20
2022-09-16T01:37:03.052Z,12.20
2022-09-16T01:38:03.006Z,12.20
2022-09-16T01:39:03.019Z,12.20
2022-09-16T01:40:03.028Z,12.20
2022-09-16T01:41:03.158Z,12.20
2022-09-16T01:42:03.221Z,12.20
2022-09-16T01:43:03.273Z,12.10
2022-09-16T01:44:03.407Z,12.10
2022-09-16T01:45:03.413Z,12.10
2022-09-16T01:46:03.406Z,12.10
2022-09-16T01:47:03.468Z,12.10
2022-09-16T01:48:03.394Z,12.10
2022-09-16T01:49:03.442Z,12.10
2022-09-16T01:50:03.408Z,12.10
2022-09-16T01:51:03.411Z,12.10
2022-09-16T01:52:03.391Z,12.10
2022-09-16T01:53:03.538Z,12.10
2022-09-16T01:54:02.665Z,12.10
2022-09-16T01:55:03.508Z,12.10
2022-09-16T01:56:03.606Z,12.00
2022-09-16T01:57:02.667Z,12.00
2022-09-16T01:58:02.628Z,12.00
2022-09-16T01:59:02.635Z,12.00
2022-09-16T02:00:02.672Z,12.00
2022-09-16T02:01:03.342Z,12.00
2022-09-16T02:02:03.575Z,12.00
2022-09-16T02:03:03.495Z,12.00
2022-09-16T02:04:03.473Z,12.00
2022-09-16T02:05:03.508Z,11.90
2022-09-16T02:06:03.482Z,11.90
2022-09-16T02:07:02.649Z,11.90
2022-09-16T02:08:02.797Z,11.90
2022-09-16T02:09:02.817Z,11.90
2022-09-16T02:10:02.918Z,11.90
2022-09-16T02:11:03.008Z,11.90
2022-09-16T02:12:03.027Z,11.90
2022-09-16T02:13:03.093Z,11.90
2022-09-16T02:14:03.217Z,11.90
2022-09-16T02:15:03.265Z,11.90
2022-09-16T02:16:03.300Z,11.80
2022-09-16T02:17:03.372Z,11.90
2022-09-16T02:18:03.331Z,11.80
2022-09-16T02:19:03.345Z,11.80
2022-09-16T02:20:03.393Z,11.80
2022-09-16T02:21:03.602Z,11.80
2022-09-16T02:22:03.589Z,11.80
2022-09-16T02:23:02.681Z,11.80
2022-09-16T02:24:02.733Z,11.80
2022-09-16T02:25:02.923Z,11.80
2022-09-16T02:26:02.872Z,11.80
2022-09-16T02:27:02.877Z,11.80
2022-09-16T02:28:02.850Z,11.80
2022-09-16T02:29:02.985Z,11.80
2022-09-16T02:30:02.963Z,11.80
2022-09-16T02:31:02.991Z,11.80
2022-09-16T02:32:03.074Z,11.80
2022-09-16T02:33:03.211Z,11.70
2022-09-16T02:34:03.220Z,11.70
2022-09-16T02:35:03.274Z,11.70
2022-09-16T02:36:03.210Z,11.70
2022-09-16T02:37:03.296Z,11.70
2022-09-16T02:38:03.372Z,11.70
2022-09-16T02:39:03.327Z,11.70
2022-09-16T02:40:03.249Z,11.70
2022-09-16T02:41:03.370Z,11.70
2022-09-16T02:42:03.289Z,11.70
2022-09-16T02:43:04.702Z,11.70
2022-09-16T02:44:02.784Z,11.70
2022-09-16T02:45:02.759Z,11.70
2022-09-16T02:46:03.093Z,11.70
2022-09-16T02:47:03.003Z,11.70
2022-09-16T02:48:03.043Z,11.70
2022-09-16T02:49:02.967Z,11.70
2022-09-16T02:50:03.001Z,11.70
2022-09-16T02:51:02.950Z,11.70
2022-09-16T02:52:03.013Z,11.70
2022-09-16T02:53:02.968Z,11.70
2022-09-16T02:54:03.118Z,11.70
2022-09-16T02:55:03.057Z,11.70
2022-09-16T02:56:03.459Z,11.70
2022-09-16T02:57:03.439Z,11.80
2022-09-16T02:58:03.463Z,11.80
2022-09-16T02:59:03.555Z,11.70
2022-09-16T03:00:03.582Z,11.70
2022-09-16T03:01:03.612Z,11.70
2022-09-16T03:02:03.641Z,11.70
2022-09-16T03:03:02.724Z,11.70
2022-09-16T03:04:03.621Z,11.70
2022-09-16T03:05:03.627Z,11.70
2022-09-16T03:06:03.580Z,11.70
2022-09-16T03:07:03.597Z,11.70
2022-09-16T03:08:03.662Z,11.70
2022-09-16T03:09:03.485Z,11.70
2022-09-16T03:10:02.605Z,11.70
2022-09-16T03:11:03.032Z,11.70
2022-09-16T03:12:03.126Z,11.70
2022-09-16T03:13:03.151Z,11.70
2022-09-16T03:14:03.093Z,11.70
2022-09-16T03:15:03.177Z,11.70
2022-09-16T03:16:03.538Z,11.70
2022-09-16T03:17:03.421Z,11.70
2022-09-16T03:18:03.374Z,11.70
2022-09-16T03:19:03.380Z,11.70
2022-09-16T03:20:03.440Z,11.70
2022-09-16T03:21:02.804Z,11.70
2022-09-16T03:22:02.847Z,11.70
2022-09-16T03:23:02.922Z,11.70
2022-09-16T03:24:02.988Z,11.70
2022-09-16T03:25:03.012Z,11.70
2022-09-16T03:26:03.019Z,11.70
2022-09-16T03:27:03.109Z,11.70
2022-09-16T03:28:03.197Z,11.70
2022-09-16T03:29:03.191Z,11.70
2022-09-16T03:30:03.382Z,11.70
2022-09-16T03:31:03.371Z,11.70
2022-09-16T03:32:03.333Z,11.70
2022-09-16T03:33:03.346Z,11.70
2022-09-16T03:34:03.237Z,11.70
2022-09-16T03:35:03.391Z,11.70
2022-09-16T03:36:03.355Z,11.70
2022-09-16T03:37:03.507Z,11.70
2022-09-16T03:38:03.526Z,11.70
2022-09-16T03:39:03.547Z,11.70
2022-09-16T03:40:03.607Z,11.70
2022-09-16T03:41:03.571Z,11.70
2022-09-16T03:42:03.588Z,11.70
2022-09-16T03:43:03.559Z,11.70
2022-09-16T03:44:04.145Z,11.70
2022-09-16T03:45:03.560Z,11.70
2022-09-16T03:46:03.465Z,11.70
2022-09-16T03:47:03.524Z,11.70
2022-09-16T03:48:03.482Z,11.70
2022-09-16T03:49:03.549Z,11.70
2022-09-16T03:50:03.557Z,11.70
2022-09-16T03:51:02.652Z,11.70
2022-09-16T03:52:02.721Z,11.70
2022-09-16T03:53:02.696Z,11.70
2022-09-16T03:54:02.823Z,11.70
2022-09-16T03:55:02.864Z,11.70
2022-09-16T03:56:02.875Z,11.70
2022-09-16T03:57:02.851Z,11.70
2022-09-16T03:58:02.911Z,11.70
2022-09-16T03:59:02.918Z,11.70
2022-09-16T04:00:02.987Z,11.70
2022-09-16T04:01:03.073Z,11.80
2022-09-16T04:02:03.189Z,11.80
2022-09-16T04:03:03.207Z,11.70
2022-09-16T04:04:03.214Z,11.80
2022-09-16T04:05:03.185Z,11.80
2022-09-16T04:06:03.219Z,11.80
2022-09-16T04:07:03.226Z,11.80
2022-09-16T04:08:03.200Z,11.80
2022-09-16T04:09:03.262Z,11.80
2022-09-16T04:10:03.328Z,11.80
2022-09-16T04:11:03.241Z,11.80
2022-09-16T04:12:03.350Z,11.80
2022-09-16T04:13:03.367Z,11.80
2022-09-16T04:14:03.328Z,11.80
2022-09-16T04:15:03.304Z,11.90
2022-09-16T04:16:03.412Z,11.90
2022-09-16T04:17:03.374Z,11.90
2022-09-16T04:18:03.479Z,11.90
2022-09-16T04:19:03.357Z,11.90
2022-09-16T04:20:03.449Z,11.90
2022-09-16T04:21:03.431Z,11.90
2022-09-16T04:22:03.342Z,11.90
2022-09-16T04:23:03.344Z,11.90
2022-09-16T04:24:03.415Z,11.90
2022-09-16T04:25:03.747Z,11.90
2022-09-16T04:26:02.801Z,11.90
2022-09-16T04:27:02.770Z,11.90
2022-09-16T04:28:02.811Z,11.90
2022-09-16T04:29:02.798Z,11.90
2022-09-16T04:30:02.773Z,11.90
2022-09-16T04:31:02.694Z,11.90
2022-09-16T04:32:02.769Z,11.90
2022-09-16T04:33:02.726Z,11.90
2022-09-16T04:34:02.720Z,11.90
2022-09-16T04:35:02.701Z,11.90
2022-09-16T04:36:02.793Z,11.90
2022-09-16T04:37:02.746Z,11.90
2022-09-16T04:38:02.759Z,11.90
2022-09-16T04:39:02.849Z,11.90
2022-09-16T04:40:04.879Z,11.90
2022-09-16T04:41:03.013Z,11.90
2022-09-16T04:42:03.059Z,11.90
2022-09-16T04:43:03.117Z,11.90
2022-09-16T04:44:03.161Z,11.90
2022-09-16T04:45:03.174Z,11.90
2022-09-16T04:46:03.265Z,11.90
2022-09-16T04:47:03.124Z,11.90
2022-09-16T04:48:03.134Z,11.90
2022-09-16T04:49:03.248Z,11.90
2022-09-16T04:50:03.144Z,11.90
2022-09-16T04:51:03.301Z,11.90
2022-09-16T04:52:03.276Z,11.90
2022-09-16T04:53:03.321Z,11.90
2022-09-16T04:54:03.343Z,11.90
2022-09-16T04:55:03.564Z,12.00
2022-09-16T04:56:03.549Z,12.00
2022-09-16T04:57:02.654Z,12.00
2022-09-16T04:58:02.643Z,12.00
2022-09-16T04:59:02.768Z,12.00
2022-09-16T05:00:04.025Z,12.00
2022-09-16T05:01:02.775Z,12.00
2022-09-16T05:02:02.711Z,12.00
2022-09-16T05:03:02.844Z,12.00
2022-09-16T05:04:02.696Z,12.00
2022-09-16T05:05:02.880Z,12.00
2022-09-16T05:06:02.887Z,12.00
2022-09-16T05:07:02.909Z,12.00
2022-09-16T05:08:02.934Z,12.00
2022-09-16T05:09:02.786Z,12.10
2022-09-16T05:10:02.909Z,12.00
2022-09-16T05:11:02.941Z,12.10
2022-09-16T05:12:02.775Z,12.00
2022-09-16T05:13:02.838Z,12.00
2022-09-16T05:14:02.768Z,12.10
2022-09-16T05:15:02.885Z,12.10
2022-09-16T05:16:02.957Z,12.10
2022-09-16T05:17:03.012Z,12.10
2022-09-16T05:18:03.061Z,12.10
2022-09-16T05:19:03.162Z,12.10
2022-09-16T05:20:03.169Z,12.10
2022-09-16T05:21:03.202Z,12.10
2022-09-16T05:22:03.336Z,12.10
2022-09-16T05:23:03.292Z,12.10
2022-09-16T05:24:03.260Z,12.10
2022-09-16T05:25:03.248Z,12.10
2022-09-16T05:26:03.202Z,12.10
2022-09-16T05:27:03.262Z,12.10
2022-09-16T05:28:03.156Z,12.10
2022-09-16T05:29:03.235Z,12.10
2022-09-16T05:30:03.142Z,12.10
2022-09-16T05:31:03.364Z,12.10
2022-09-16T05:32:03.214Z,12.10
2022-09-16T05:33:03.276Z,12.10
2022-09-16T05:34:03.293Z,12.10
2022-09-16T05:35:03.298Z,12.10
2022-09-16T05:36:03.370Z,12.10
2022-09-16T05:37:03.541Z,12.10
2022-09-16T05:38:03.617Z,12.10
2022-09-16T05:39:23.040Z,12.10
2022-09-16T05:40:03.633Z,12.10
2022-09-16T05:41:03.561Z,12.20
2022-09-16T05:42:03.587Z,12.20
2022-09-16T05:43:02.719Z,12.20
2022-09-16T05:44:02.696Z,12.20
2022-09-16T05:45:03.627Z,12.20
2022-09-16T05:46:02.655Z,12.20
2022-09-16T05:47:02.742Z,12.20
2022-09-16T05:48:02.723Z,12.20
2022-09-16T05:49:02.723Z,12.20
2022-09-16T05:50:03.651Z,12.20
2022-09-16T05:51:03.619Z,12.30
2022-09-16T05:52:02.697Z,12.30
2022-09-16T05:53:02.630Z,12.30
2022-09-16T05:54:02.689Z,12.30
2022-09-16T05:55:02.962Z,12.30
2022-09-16T05:56:03.084Z,12.30
2022-09-16T05:57:06.723Z,12.30
2022-09-16T05:58:02.943Z,12.30
2022-09-16T05:59:02.903Z,12.30
2022-09-16T06:00:03.127Z,12.40
2022-09-16T06:01:03.091Z,12.40
2022-09-16T06:02:03.123Z,12.40
2022-09-16T06:03:02.979Z,12.40
2022-09-16T06:04:02.829Z,12.50
2022-09-16T06:05:02.912Z,12.50
2022-09-16T06:06:02.897Z,12.60
2022-09-16T06:07:02.890Z,12.60
2022-09-16T06:08:02.832Z,12.70
2022-09-16T06:09:02.923Z,12.70
2022-09-16T06:10:02.884Z,12.70
2022-09-16T06:11:02.975Z,12.80
2022-09-16T06:12:03.102Z,12.80
2022-09-16T06:13:03.141Z,12.80
2022-09-16T06:14:03.319Z,12.80
2022-09-16T06:15:03.316Z,12.80
2022-09-16T06:16:03.459Z,12.90
2022-09-16T06:17:03.348Z,12.90
2022-09-16T06:18:06.390Z,12.90
2022-09-16T06:19:03.484Z,12.90
2022-09-16T06:20:03.369Z,12.90
2022-09-16T06:21:03.435Z,12.90
2022-09-16T06:22:03.471Z,12.90
2022-09-16T06:23:03.622Z,13.00
2022-09-16T06:24:02.714Z,13.00
2022-09-16T06:25:02.646Z,13.00
2022-09-16T06:26:02.733Z,13.10
2022-09-16T06:27:02.865Z,13.10
2022-09-16T06:28:02.719Z,13.20
2022-09-16T06:29:02.822Z,13.30
2022-09-16T06:30:02.867Z,13.40
2022-09-16T06:31:02.934Z,13.40
2022-09-16T06:32:02.743Z,13.40
2022-09-16T06:33:02.923Z,13.50
2022-09-16T06:34:02.873Z,13.50
2022-09-16T06:35:02.841Z,13.50
2022-09-16T06:36:02.763Z,13.50
2022-09-16T06:37:02.881Z,13.60
2022-09-16T06:38:02.858Z,13.60
2022-09-16T06:39:02.894Z,13.60
2022-09-16T06:40:02.801Z,13.60
2022-09-16T06:41:02.756Z,13.50
2022-09-16T06:42:02.825Z,13.50
2022-09-16T06:43:02.888Z,13.50
2022-09-16T06:44:02.837Z,13.50
2022-09-16T06:45:02.856Z,13.50
2022-09-16T06:46:02.879Z,13.50
2022-09-16T06:47:02.892Z,13.50
2022-09-16T06:48:02.825Z,13.40
2022-09-16T06:49:05.623Z,13.40
2022-09-16T06:50:02.899Z,13.40
2022-09-16T06:51:03.034Z,13.40
2022-09-16T06:52:03.052Z,13.40
2022-09-16T06:53:03.131Z,13.40
2022-09-16T06:54:03.155Z,13.40
2022-09-16T06:55:03.210Z,13.40
2022-09-16T06:56:03.208Z,13.40
2022-09-16T06:57:03.296Z,13.40
2022-09-16T06:58:02.648Z,13.40
2022-09-16T06:59:02.743Z,13.40
2022-09-16T07:00:02.730Z,13.50
2022-09-16T07:01:02.946Z,13.50
2022-09-16T07:02:02.904Z,13.50
2022-09-16T07:03:02.999Z,13.60
2022-09-16T07:04:02.999Z,13.60
2022-09-16T07:05:03.460Z,13.70
2022-09-16T07:06:03.456Z,13.80
2022-09-16T07:07:10.469Z,13.80
2022-09-16T07:08:03.635Z,14.00
2022-09-16T07:09:02.892Z,14.10
2022-09-16T07:10:02.942Z,14.20
2022-09-16T07:11:03.220Z,14.30
2022-09-16T07:12:03.193Z,14.40
2022-09-16T07:13:03.158Z,14.50
2022-09-16T07:14:03.280Z,14.70
2022-09-16T07:15:03.284Z,14.80
2022-09-16T07:16:12.708Z,14.90
2022-09-16T07:17:03.516Z,14.90
2022-09-16T07:18:03.373Z,15.00
2022-09-16T07:19:03.384Z,15.00
2022-09-16T07:20:03.271Z,15.10
2022-09-16T07:21:03.306Z,15.10
2022-09-16T07:22:03.281Z,15.20
2022-09-16T07:23:03.257Z,15.20
2022-09-16T07:24:03.186Z,15.30
2022-09-16T07:25:03.307Z,15.30
2022-09-16T07:26:03.310Z,15.30
2022-09-16T07:27:02.874Z,15.30
2022-09-16T07:28:02.846Z,15.40
2022-09-16T07:29:02.805Z,15.50
2022-09-16T07:30:06.877Z,15.60
2022-09-16T07:31:02.933Z,15.60
2022-09-16T07:32:02.909Z,15.70
2022-09-16T07:33:02.818Z,15.70
2022-09-16T07:34:03.982Z,15.70
2022-09-16T07:35:02.884Z,15.70
2022-09-16T07:36:02.843Z,15.60
2022-09-16T07:37:02.850Z,15.60
2022-09-16T07:38:02.950Z,15.60
2022-09-16T07:39:02.927Z,15.60
2022-09-16T07:40:02.911Z,15.50
2022-09-16T07:41:03.227Z,15.60
2022-09-16T07:42:05.982Z,15.50
2022-09-16T07:43:03.358Z,15.60
2022-09-16T07:44:03.458Z,15.60
2022-09-16T07:45:03.406Z,15.60
2022-09-16T07:46:03.637Z,15.70
2022-09-16T07:47:03.535Z,15.70
2022-09-16T07:48:03.523Z,15.70
2022-09-16T07:49:03.466Z,15.70
2022-09-16T07:50:03.654Z,15.70
2022-09-16T07:51:02.679Z,15.60
2022-09-16T07:52:02.824Z,15.60
2022-09-16T07:53:02.799Z,15.60
2022-09-16T07:54:02.780Z,15.50
2022-09-16T07:55:02.840Z,15.50
2022-09-16T07:56:02.733Z,15.50
2022-09-16T07:57:02.739Z,15.50
2022-09-16T07:58:02.787Z,15.40
2022-09-16T07:59:02.876Z,15.40
2022-09-16T08:00:02.800Z,15.40
2022-09-16T08:01:04.692Z,15.40
2022-09-16T08:02:03.003Z,15.40
2022-09-16T08:03:02.950Z,15.30
2022-09-16T08:04:02.761Z,15.30
2022-09-16T08:05:02.868Z,15.30
2022-09-16T08:06:02.930Z,15.20
2022-09-16T08:07:02.958Z,15.20
2022-09-16T08:08:02.919Z,15.20
2022-09-16T08:09:10.393Z,15.10
2022-09-16T08:10:02.996Z,15.00
2022-09-16T08:11:03.031Z,15.00
2022-09-16T08:12:03.041Z,15.00
2022-09-16T08:13:03.127Z,14.90
2022-09-16T08:14:03.065Z,14.80
2022-09-16T08:15:03.048Z,14.80
2022-09-16T08:16:03.266Z,14.70
2022-09-16T08:17:03.357Z,14.70
2022-09-16T08:18:03.361Z,14.70
2022-09-16T08:19:03.350Z,14.70
2022-09-16T08:20:03.385Z,14.60
2022-09-16T08:21:03.612Z,14.60
2022-09-16T08:22:03.512Z,14.60
2022-09-16T08:23:03.529Z,14.60
2022-09-16T08:24:03.460Z,14.60
2022-09-16T08:25:03.489Z,14.60
2022-09-16T08:26:03.556Z,14.60
2022-09-16T08:27:03.603Z,14.60
2022-09-16T08:28:03.547Z,14.60
2022-09-16T08:29:08.703Z,14.60
2022-09-16T08:30:03.606Z,14.60
2022-09-16T08:31:03.558Z,14.60
2022-09-16T08:32:03.574Z,14.60
2022-09-16T08:33:02.719Z,14.70
2022-09-16T08:34:02.763Z,14.70
2022-09-16T08:35:03.573Z,14.70
2022-09-16T08:36:03.506Z,14.80
2022-09-16T08:37:03.686Z,14.80
2022-09-16T08:38:02.672Z,14.80
2022-09-16T08:39:02.800Z,14.80
2022-09-16T08:40:03.071Z,14.90
2022-09-16T08:41:02.886Z,14.90
2022-09-16T08:42:02.973Z,14.90
2022-09-16T08:43:03.078Z,14.90
2022-09-16T08:44:03.194Z,14.90
2022-09-16T08:45:03.195Z,14.90
2022-09-16T08:46:03.378Z,14.90
2022-09-16T08:47:03.415Z,14.90
2022-09-16T08:48:03.457Z,14.90
2022-09-16T08:49:04.581Z,14.90
2022-09-16T08:50:06.229Z,14.90
2022-09-16T08:51:03.490Z,15.00
2022-09-16T08:52:03.529Z,15.00
2022-09-16T08:53:03.583Z,15.00
2022-09-16T08:54:03.644Z,15.00
2022-09-16T08:55:02.648Z,15.10
2022-09-16T08:56:03.566Z,15.10
2022-09-16T08:57:02.691Z,15.10
2022-09-16T08:58:03.207Z,15.10
2022-09-16T08:59:03.249Z,15.10
2022-09-16T09:00:03.238Z,15.20
2022-09-16T09:01:03.376Z,15.20
2022-09-16T09:02:08.244Z,15.20
2022-09-16T09:03:03.116Z,15.20
2022-09-16T09:04:03.202Z,15.20
2022-09-16T09:05:03.065Z,15.20
2022-09-16T09:06:03.159Z,15.20
2022-09-16T09:07:03.149Z,15.20
2022-09-16T09:08:03.095Z,15.20
2022-09-16T09:09:03.120Z,15.20
2022-09-16T09:10:04.942Z,15.20
2022-09-16T09:11:03.090Z,15.20
2022-09-16T09:12:03.205Z,15.20
2022-09-16T09:13:03.494Z,15.30
2022-09-16T09:14:03.195Z,15.30
2022-09-16T09:15:03.209Z,15.30
2022-09-16T09:16:03.345Z,15.40
2022-09-16T09:17:03.315Z,15.40
2022-09-16T09:18:03.402Z,15.50
2022-09-16T09:19:03.425Z,15.60
2022-09-16T09:20:03.465Z,15.60
2022-09-16T09:21:03.434Z,15.70
2022-09-16T09:22:03.423Z,15.70
2022-09-16T09:23:03.584Z,15.80
2022-09-16T09:24:03.616Z,15.80
2022-09-16T09:25:03.502Z,15.80
2022-09-16T09:26:02.616Z,15.80
2022-09-16T09:27:02.666Z,15.90
2022-09-16T09:28:02.670Z,15.90
2022-09-16T09:29:02.735Z,15.90
2022-09-16T09:30:02.802Z,15.90
2022-09-16T09:31:05.247Z,15.90
2022-09-16T09:32:02.890Z,15.80
2022-09-16T09:33:02.937Z,15.80
2022-09-16T09:34:02.784Z,15.80
2022-09-16T09:35:02.799Z,15.70
2022-09-16T09:36:03.373Z,15.70
2022-09-16T09:37:03.379Z,15.60
2022-09-16T09:38:03.540Z,15.50
2022-09-16T09:39:03.505Z,15.50
2022-09-16T09:40:03.582Z,15.40
2022-09-16T09:41:02.601Z,15.30
2022-09-16T09:42:02.715Z,15.30
2022-09-16T09:43:02.650Z,15.20
2022-09-16T09:44:02.757Z,15.20
2022-09-16T09:45:02.816Z,15.10
2022-09-16T09:46:02.760Z,15.10
2022-09-16T09:47:02.748Z,15.10
2022-09-16T09:48:02.676Z,15.00
2022-09-16T09:49:02.756Z,15.10
2022-09-16T09:50:02.796Z,15.10
2022-09-16T09:51:02.843Z,15.20
2022-09-16T09:52:02.859Z,15.30
2022-09-16T09:53:02.878Z,15.40
2022-09-16T09:54:03.139Z,15.50
2022-09-16T09:55:03.070Z,15.60
2022-09-16T09:56:03.056Z,15.70
2022-09-16T09:57:03.067Z,15.80
2022-09-16T09:58:03.017Z,15.90
2022-09-16T09:59:03.009Z,16.00
2022-09-16T10:00:02.983Z,16.00
2022-09-16T10:01:03.010Z,16.10
2022-09-16T10:02:03.014Z,16.10
2022-09-16T10:03:02.863Z,16.20
2022-09-16T10:04:02.672Z,16.20
2022-09-16T10:05:02.691Z,16.20
2022-09-16T10:06:02.815Z,16.20
2022-09-16T10:08:02.774Z,16.20
2022-09-16T10:09:02.829Z,16.20
2022-09-16T10:10:02.793Z,16.10
2022-09-16T10:11:02.795Z,16.10
2022-09-16T10:12:02.767Z,16.10
2022-09-16T10:13:02.717Z,16.00
2022-09-16T10:14:02.771Z,16.00
2022-09-16T10:15:02.775Z,15.90
2022-09-16T10:16:02.844Z,15.90
2022-09-16T10:17:02.936Z,15.90
2022-09-16T10:18:02.847Z,15.80
2022-09-16T10:19:02.861Z,15.80
2022-09-16T10:20:02.975Z,15.80
2022-09-16T10:21:02.954Z,15.80
2022-09-16T10:22:03.030Z,15.80
2022-09-16T10:23:03.037Z,15.80
2022-09-16T10:24:03.006Z,15.90
2022-09-16T10:25:02.948Z,15.90
2022-09-16T10:26:03.101Z,16.00
2022-09-16T10:27:03.078Z,16.10
2022-09-16T10:28:03.063Z,16.20
2022-09-16T10:29:03.094Z,16.30
2022-09-16T10:30:02.933Z,16.30
2022-09-16T10:31:03.026Z,16.30
2022-09-16T10:32:03.083Z,16.40
2022-09-16T10:33:02.965Z,16.40
2022-09-16T10:34:02.915Z,16.40
2022-09-16T10:35:02.907Z,16.40
2022-09-16T10:36:03.010Z,16.40
2022-09-16T10:37:02.987Z,16.30
2022-09-16T10:38:03.033Z,16.30
2022-09-16T10:39:04.563Z,16.30
2022-09-16T10:40:03.150Z,16.20
2022-09-16T10:41:03.198Z,16.20
2022-09-16T10:42:03.284Z,16.10
2022-09-16T10:43:03.184Z,16.10
2022-09-16T10:44:03.132Z,16.10
2022-09-16T10:45:03.021Z,16.10
2022-09-16T10:46:03.140Z,16.10
2022-09-16T10:47:03.088Z,16.10
2022-09-16T10:48:04.853Z,16.10
2022-09-16T10:49:03.112Z,16.10
2022-09-16T10:50:03.102Z,16.20
2022-09-16T10:51:03.153Z,16.20
2022-09-16T10:52:03.108Z,16.20
2022-09-16T10:53:03.116Z,16.20
2022-09-16T10:54:03.166Z,16.30
2022-09-16T10:55:03.159Z,16.30
2022-09-16T10:56:03.225Z,16.30
2022-09-16T10:57:03.233Z,16.30
2022-09-16T10:58:03.224Z,16.30
2022-09-16T10:59:03.227Z,16.30
2022-09-16T11:00:03.195Z,16.30
2022-09-16T11:01:03.302Z,16.30
2022-09-16T11:02:03.524Z,16.30
2022-09-16T11:03:02.755Z,16.30
2022-09-16T11:04:03.762Z,16.30
2022-09-16T11:05:02.647Z,16.30
2022-09-16T11:06:02.721Z,16.30
2022-09-16T11:07:03.230Z,16.30
2022-09-16T11:08:03.257Z,16.30
2022-09-16T11:09:03.295Z,16.30
2022-09-16T11:10:02.731Z,16.30
2022-09-16T11:11:02.794Z,16.30
2022-09-16T11:12:03.745Z,16.30
2022-09-16T11:13:03.275Z,16.40
2022-09-16T11:14:03.194Z,16.40
2022-09-16T11:15:03.120Z,16.40
2022-09-16T11:16:03.187Z,16.40
2022-09-16T11:17:03.420Z,16.50
2022-09-16T11:18:03.305Z,16.50
2022-09-16T11:19:03.513Z,16.60
2022-09-16T11:20:03.401Z,16.60
2022-09-16T11:21:03.529Z,16.70
2022-09-16T11:22:03.406Z,16.70
2022-09-16T11:23:03.498Z,16.80
2022-09-16T11:24:03.494Z,16.80
2022-09-16T11:25:03.583Z,16.90
2022-09-16T11:26:03.535Z,17.00
2022-09-16T11:27:03.600Z,17.00
2022-09-16T11:28:03.630Z,17.10
2022-09-16T11:29:02.627Z,17.20
2022-09-16T11:30:02.732Z,17.20
2022-09-16T11:31:02.906Z,17.20
2022-09-16T11:32:02.914Z,17.30
2022-09-16T11:33:04.110Z,17.40
2022-09-16T11:34:03.970Z,17.40
2022-09-16T11:35:02.999Z,17.50
2022-09-16T11:36:02.961Z,17.50
2022-09-16T11:37:03.415Z,17.60
2022-09-16T11:38:03.415Z,17.70
2022-09-16T11:39:03.315Z,17.70
2022-09-16T11:40:03.299Z,17.80
2022-09-16T11:41:03.339Z,17.80
2022-09-16T11:42:03.426Z,17.90
2022-09-16T11:43:03.477Z,17.90
2022-09-16T11:44:03.563Z,18.00
2022-09-16T11:45:02.692Z,18.00
2022-09-16T11:46:02.844Z,18.00
2022-09-16T11:47:02.784Z,18.00
2022-09-16T11:48:02.754Z,18.00
2022-09-16T11:49:02.748Z,17.90
2022-09-16T11:50:02.790Z,17.90
2022-09-16T11:51:02.815Z,17.90
2022-09-16T11:52:02.803Z,17.90
2022-09-16T11:53:04.980Z,17.80
2022-09-16T11:54:03.043Z,17.70
2022-09-16T11:55:03.126Z,17.70
2022-09-16T11:56:03.183Z,17.60
2022-09-16T11:57:03.279Z,17.60
2022-09-16T11:58:03.202Z,17.50
2022-09-16T11:59:03.234Z,17.50
2022-09-16T12:00:03.265Z,17.40
2022-09-16T12:01:03.323Z,17.40
2022-09-16T12:02:03.467Z,17.40
2022-09-16T12:03:03.378Z,17.40
2022-09-16T12:04:03.365Z,17.40
2022-09-16T12:05:03.336Z,17.40
2022-09-16T12:06:03.462Z,17.30
2022-09-16T12:07:03.473Z,17.40
2022-09-16T12:08:03.492Z,17.40
2022-09-16T12:09:04.540Z,17.40
2022-09-16T12:10:03.489Z,17.40
2022-09-16T12:11:03.501Z,17.40
2022-09-16T12:12:03.522Z,17.40
2022-09-16T12:13:03.581Z,17.40
2022-09-16T12:14:05.762Z,17.40
2022-09-16T12:15:05.766Z,17.40
2022-09-16T12:16:03.598Z,17.40
2022-09-16T12:17:02.756Z,17.40
2022-09-16T12:18:02.916Z,17.40
2022-09-16T12:19:02.935Z,17.40
2022-09-16T12:20:02.963Z,17.40
2022-09-16T12:21:03.079Z,17.40
2022-09-16T12:22:03.005Z,17.40
2022-09-16T12:23:03.104Z,17.40
2022-09-16T12:24:03.147Z,17.50
2022-09-16T12:25:03.168Z,17.50
2022-09-16T12:26:03.266Z,17.50
2022-09-16T12:27:03.183Z,17.50
2022-09-16T12:28:03.187Z,17.50
2022-09-16T12:29:03.132Z,17.50
2022-09-16T12:30:03.270Z,17.50
2022-09-16T12:31:03.264Z,17.40
2022-09-16T12:32:03.358Z,17.40
2022-09-16T12:33:03.218Z,17.40
2022-09-16T12:34:03.395Z,17.30
2022-09-16T12:35:03.371Z,17.30
2022-09-16T12:36:03.390Z,17.20
2022-09-16T12:37:03.347Z,17.00
2022-09-16T12:38:03.374Z,16.90
2022-09-16T12:39:03.359Z,16.80
2022-09-16T12:40:03.341Z,16.60
2022-09-16T12:41:03.276Z,16.50
2022-09-16T12:42:03.409Z,16.40
2022-09-16T12:43:03.461Z,16.20
2022-09-16T12:44:16.914Z,16.10
2022-09-16T12:45:03.551Z,15.90
2022-09-16T12:46:03.618Z,15.70
2022-09-16T12:47:02.669Z,15.70
2022-09-16T12:48:02.640Z,15.60
2022-09-16T12:49:02.803Z,15.50
2022-09-16T12:50:02.849Z,15.50
2022-09-16T12:51:02.930Z,15.40
2022-09-16T12:52:02.812Z,15.30
2022-09-16T12:53:02.902Z,15.30